Time;durP1;ratioP1;P1;durP2;ratioP2;P2;SDS_P1;SDS_P2;PMS_P1;PMS_P2;Temp;Humidity;BMP_temperature;BMP_pressure;BME280_temperature;BME280_humidity;BME280_pressure;Samples;Min_cycle;Max_cycle;Signal;HPM_P1;HPM_P2
2021/09/12 00:00:08;;;;;;;20.93;18.93;;;17.60;1.00;;;;;;5030543;28;20455;-85
2021/09/12 00:02:35;;;;;;;20.07;18.07;;;17.50;1.00;;;;;;5028758;28;20541;-85
2021/09/12 00:05:02;;;;;;;20.87;18.97;;;17.50;1.00;;;;;;5030658;28;20547;-84
2021/09/12 00:07:30;;;;;;;21.30;19.33;;;17.50;1.00;;;;;;5010434;28;20464;-83
2021/09/12 00:09:58;;;;;;;20.70;18.80;;;17.50;1.00;;;;;;5025486;28;20567;-83
2021/09/12 00:12:25;;;;;;;22.10;20.00;;;17.40;1.00;;;;;;5024177;28;20551;-83
2021/09/12 00:14:52;;;;;;;22.37;20.03;;;17.40;1.00;;;;;;5025042;28;20567;-84
2021/09/12 00:17:19;;;;;;;22.53;20.37;;;17.40;1.00;;;;;;5025678;28;20452;-86
2021/09/12 00:19:45;;;;;;;22.33;20.30;;;17.40;1.00;;;;;;5023500;28;20449;-85
2021/09/12 00:22:12;;;;;;;23.40;21.20;;;17.30;1.00;;;;;;5028441;28;20472;-86
2021/09/12 00:24:39;;;;;;;22.27;19.90;;;17.30;1.00;;;;;;5029241;28;20448;-84
2021/09/12 00:27:07;;;;;;;22.97;20.87;;;17.30;1.00;;;;;;5024653;28;20459;-85
2021/09/12 00:29:34;;;;;;;21.97;19.87;;;17.30;1.00;;;;;;5028032;28;20440;-86
2021/09/12 00:32:01;;;;;;;24.80;22.50;;;17.20;1.00;;;;;;5028406;28;21211;-83
2021/09/12 00:34:27;;;;;;;22.03;20.00;;;17.20;1.00;;;;;;5026540;28;20476;-83
2021/09/12 00:36:54;;;;;;;24.00;21.60;;;17.20;1.00;;;;;;5025513;28;20986;-83
2021/09/12 00:39:21;;;;;;;23.60;21.20;;;17.30;1.00;;;;;;5014373;28;20549;-83
2021/09/12 00:41:48;;;;;;;24.90;22.50;;;17.30;1.00;;;;;;5032224;28;20460;-83
2021/09/12 00:44:16;;;;;;;24.77;22.23;;;17.30;1.00;;;;;;5035371;28;20467;-84
2021/09/12 00:46:44;;;;;;;25.83;23.40;;;17.20;1.00;;;;;;5034517;28;20492;-84
2021/09/12 00:49:12;;;;;;;24.33;21.93;;;17.20;1.00;;;;;;5031099;28;20527;-84
2021/09/12 00:51:40;;;;;;;24.37;21.87;;;17.20;1.00;;;;;;5027207;28;21767;-83
2021/09/12 00:54:08;;;;;;;26.80;24.27;;;17.20;1.00;;;;;;5030590;28;20533;-84
2021/09/12 00:56:37;;;;;;;26.20;23.60;;;17.20;1.00;;;;;;5031291;28;21699;-82
2021/09/12 00:59:07;;;;;;;25.97;23.20;;;17.20;1.00;;;;;;5016168;28;20602;-83
2021/09/12 01:01:36;;;;;;;26.03;23.37;;;17.20;1.00;;;;;;5031806;28;20507;-84
2021/09/12 01:04:03;;;;;;;25.53;23.03;;;17.20;1.00;;;;;;5031649;28;20565;-84
2021/09/12 01:06:30;;;;;;;26.13;23.40;;;17.20;1.00;;;;;;5041439;28;20424;-83
2021/09/12 01:08:57;;;;;;;25.37;22.73;;;17.20;1.00;;;;;;5058009;28;20425;-85
2021/09/12 01:11:24;;;;;;;26.67;23.87;;;17.20;1.00;;;;;;5042499;28;20439;-85
2021/09/12 01:13:51;;;;;;;24.07;21.67;;;17.20;1.00;;;;;;5057582;28;20405;-86
2021/09/12 01:16:20;;;;;;;26.73;24.00;;;17.20;1.00;;;;;;5053734;28;20698;-85
2021/09/12 01:18:49;;;;;;;25.13;22.53;;;17.10;1.00;;;;;;5058652;28;20449;-85
2021/09/12 01:21:19;;;;;;;26.13;23.53;;;17.20;1.00;;;;;;5056301;28;21434;-86
2021/09/12 01:23:46;;;;;;;26.33;23.70;;;17.20;1.00;;;;;;5058206;28;20445;-86
2021/09/12 01:26:14;;;;;;;26.87;24.27;;;17.10;1.00;;;;;;5056448;28;20463;-85
2021/09/12 01:28:41;;;;;;;26.83;24.10;;;17.10;1.00;;;;;;5058463;28;20425;-86
2021/09/12 01:31:18;;;;;;;25.27;22.70;;;17.10;1.00;;;;;;5060503;28;20447;-86
2021/09/12 01:33:44;;;;;;;28.77;24.30;;;17.10;1.00;;;;;;5058780;28;20400;-86
2021/09/12 01:36:11;;;;;;;25.13;22.70;;;17.10;1.00;;;;;;5059179;28;20446;-86
2021/09/12 01:38:38;;;;;;;26.67;23.97;;;17.10;1.00;;;;;;5059722;28;20415;-86
2021/09/12 01:41:04;;;;;;;26.40;23.70;;;17.20;1.00;;;;;;5039779;28;20476;-85
2021/09/12 01:43:32;;;;;;;27.50;24.60;;;17.20;1.00;;;;;;5033705;28;20516;-84
2021/09/12 01:45:59;;;;;;;26.57;23.87;;;17.20;1.00;;;;;;5039903;28;20420;-86
2021/09/12 01:48:26;;;;;;;26.80;24.10;;;17.20;1.00;;;;;;5034959;28;20445;-85
2021/09/12 01:50:53;;;;;;;26.70;24.00;;;17.10;1.00;;;;;;5016756;28;20549;-84
2021/09/12 01:53:20;;;;;;;25.57;22.87;;;17.10;1.00;;;;;;5018405;28;20527;-83
2021/09/12 01:55:50;;;;;;;25.13;22.80;;;17.10;1.00;;;;;;5017060;28;20468;-85
2021/09/12 01:58:16;;;;;;;26.67;24.03;;;17.10;1.00;;;;;;5017888;28;20548;-84
2021/09/12 02:00:45;;;;;;;27.33;24.63;;;17.10;1.00;;;;;;5020330;28;20894;-85
2021/09/12 02:03:11;;;;;;;28.67;25.67;;;17.10;1.00;;;;;;5007552;28;20469;-85
2021/09/12 02:05:38;;;;;;;28.10;25.40;;;17.10;1.00;;;;;;5021245;28;20547;-85
2021/09/12 02:08:05;;;;;;;28.27;25.37;;;17.10;1.00;;;;;;5020915;28;20539;-85
2021/09/12 02:10:31;;;;;;;26.10;23.60;;;17.00;1.00;;;;;;5023171;28;20516;-84
2021/09/12 02:12:58;;;;;;;27.63;24.83;;;17.00;1.00;;;;;;4999255;28;20483;-85
2021/09/12 02:15:25;;;;;;;26.30;23.60;;;17.10;1.00;;;;;;5018484;28;20458;-86
2021/09/12 02:17:53;;;;;;;28.03;25.40;;;17.00;1.00;;;;;;5019501;28;20456;-85
2021/09/12 02:20:20;;;;;;;29.00;26.20;;;17.00;1.00;;;;;;5017632;28;20480;-85
2021/09/12 02:22:46;;;;;;;26.67;23.93;;;17.00;1.00;;;;;;5020635;28;21969;-85
2021/09/12 02:25:13;;;;;;;27.43;24.63;;;17.00;1.00;;;;;;5022085;28;20554;-84
2021/09/12 02:27:40;;;;;;;27.50;24.80;;;17.00;1.00;;;;;;5022779;28;22078;-86
2021/09/12 02:30:08;;;;;;;28.70;25.70;;;17.00;1.00;;;;;;5020336;28;20440;-84
2021/09/12 02:32:35;;;;;;;27.33;24.63;;;16.90;1.00;;;;;;5026102;28;20510;-86
2021/09/12 02:35:03;;;;;;;27.63;24.93;;;16.90;1.00;;;;;;5032495;28;20787;-85
2021/09/12 02:37:31;;;;;;;26.47;23.80;;;16.90;1.00;;;;;;5058483;28;20459;-87
2021/09/12 02:39:57;;;;;;;28.87;25.73;;;16.80;1.00;;;;;;5044793;28;20432;-86
2021/09/12 02:42:24;;;;;;;26.77;24.00;;;16.80;1.00;;;;;;5023450;28;20466;-85
2021/09/12 02:44:51;;;;;;;25.73;23.20;;;16.80;1.00;;;;;;5022006;28;20468;-86
2021/09/12 02:47:18;;;;;;;27.70;24.80;;;16.80;1.00;;;;;;5024635;28;21306;-84
2021/09/12 02:49:45;;;;;;;27.80;25.13;;;16.80;1.00;;;;;;5026204;28;20447;-87
2021/09/12 02:52:13;;;;;;;27.43;24.53;;;16.80;1.00;;;;;;5006115;28;20596;-86
2021/09/12 02:54:40;;;;;;;31.17;27.87;;;16.80;1.00;;;;;;5020799;28;20534;-83
2021/09/12 02:57:07;;;;;;;30.20;27.00;;;16.80;1.00;;;;;;5010927;28;20436;-88
2021/09/12 02:59:33;;;;;;;28.83;26.07;;;16.80;1.00;;;;;;5016197;28;20474;-85
2021/09/12 03:02:00;;;;;;;30.03;26.80;;;16.80;1.00;;;;;;5019588;28;20543;-86
2021/09/12 03:04:27;;;;;;;28.90;25.87;;;16.80;1.00;;;;;;5024580;28;21187;-86
2021/09/12 03:06:53;;;;;;;27.73;24.83;;;16.80;1.00;;;;;;5020678;28;20445;-85
2021/09/12 03:09:21;;;;;;;28.63;25.90;;;16.80;1.00;;;;;;5021154;28;20466;-86
2021/09/12 03:11:51;;;;;;;29.33;26.53;;;16.80;1.00;;;;;;5021654;28;20470;-85
2021/09/12 03:14:18;;;;;;;28.60;25.70;;;16.80;1.00;;;;;;5021714;28;20478;-85
2021/09/12 03:16:44;;;;;;;28.93;26.00;;;16.90;1.00;;;;;;5022068;28;20459;-83
2021/09/12 03:19:11;;;;;;;26.43;23.90;;;16.90;1.00;;;;;;5022670;28;21730;-84
2021/09/12 03:21:38;;;;;;;28.87;26.00;;;16.90;1.00;;;;;;5021714;28;21333;-85
2021/09/12 03:24:05;;;;;;;28.30;25.40;;;16.90;1.00;;;;;;5024449;28;20467;-85
2021/09/12 03:26:33;;;;;;;27.97;25.13;;;16.90;1.00;;;;;;5023087;28;21451;-85
2021/09/12 03:29:00;;;;;;;27.70;24.90;;;16.90;1.00;;;;;;5028194;28;20512;-84
2021/09/12 03:31:27;;;;;;;27.30;24.60;;;16.90;1.00;;;;;;5029471;28;20419;-84
2021/09/12 03:33:53;;;;;;;27.67;25.00;;;16.90;1.00;;;;;;5025663;28;20634;-87
2021/09/12 03:36:20;;;;;;;28.57;25.77;;;16.90;1.00;;;;;;5027060;28;20445;-85
2021/09/12 03:38:47;;;;;;;25.93;23.40;;;16.80;1.00;;;;;;5030540;28;20963;-85
2021/09/12 03:41:14;;;;;;;26.10;23.33;;;16.90;1.00;;;;;;5033819;28;21247;-85
2021/09/12 03:43:42;;;;;;;27.53;24.90;;;16.90;1.00;;;;;;5034674;28;20497;-84
2021/09/12 03:46:09;;;;;;;27.60;24.87;;;16.80;1.00;;;;;;5039613;28;20486;-84
2021/09/12 03:48:37;;;;;;;27.23;24.73;;;16.80;1.00;;;;;;5053962;28;20420;-86
2021/09/12 03:51:03;;;;;;;28.50;25.70;;;16.80;1.00;;;;;;5064221;28;20559;-85
2021/09/12 03:53:30;;;;;;;27.33;24.57;;;16.70;1.00;;;;;;5055350;28;20523;-84
2021/09/12 03:55:57;;;;;;;27.40;24.77;;;16.70;1.00;;;;;;5038240;28;20514;-85
2021/09/12 03:58:24;;;;;;;26.60;23.90;;;16.70;1.00;;;;;;5040280;28;20618;-87
2021/09/12 04:00:52;;;;;;;29.43;26.43;;;16.70;1.00;;;;;;5038211;28;20460;-86
2021/09/12 04:03:18;;;;;;;28.00;25.17;;;16.70;1.00;;;;;;5024084;28;20452;-85
2021/09/12 04:05:45;;;;;;;27.63;24.80;;;16.60;1.00;;;;;;5030046;28;20480;-86
2021/09/12 04:08:12;;;;;;;25.47;22.87;;;16.60;1.00;;;;;;5013980;28;21405;-86
2021/09/12 04:10:38;;;;;;;28.03;24.93;;;16.60;1.00;;;;;;5028791;28;20452;-84
2021/09/12 04:13:05;;;;;;;27.47;24.47;;;16.60;1.00;;;;;;5023953;28;20461;-85
2021/09/12 04:15:32;;;;;;;28.10;25.10;;;16.60;1.00;;;;;;5030818;28;20487;-84
2021/09/12 04:18:00;;;;;;;28.43;25.60;;;16.60;1.00;;;;;;5026503;28;20456;-86
2021/09/12 04:20:27;;;;;;;26.17;23.47;;;16.60;1.00;;;;;;5021893;28;20404;-85
2021/09/12 04:22:53;;;;;;;26.67;24.10;;;16.60;1.00;;;;;;5027478;28;20467;-85
2021/09/12 04:25:20;;;;;;;26.77;24.03;;;16.60;1.00;;;;;;5022610;28;20467;-86
2021/09/12 04:27:46;;;;;;;26.53;23.97;;;16.60;1.00;;;;;;5030765;28;20532;-86
2021/09/12 04:30:15;;;;;;;25.20;22.70;;;16.60;1.00;;;;;;5024382;28;20460;-86
2021/09/12 04:32:42;;;;;;;26.33;23.83;;;16.60;1.00;;;;;;5026827;28;20565;-85
2021/09/12 04:35:11;;;;;;;26.10;23.47;;;16.60;1.00;;;;;;5024301;28;20559;-87
2021/09/12 04:37:37;;;;;;;26.20;23.60;;;16.70;1.00;;;;;;5027279;28;20501;-85
2021/09/12 04:40:05;;;;;;;25.27;22.73;;;16.60;1.00;;;;;;5028411;28;20504;-85
2021/09/12 04:42:33;;;;;;;25.33;22.77;;;16.70;1.00;;;;;;5011133;28;20550;-86
2021/09/12 04:45:00;;;;;;;25.57;22.83;;;16.70;1.00;;;;;;5009526;28;20563;-84
2021/09/12 04:47:26;;;;;;;26.10;23.40;;;16.70;1.00;;;;;;5026978;28;21117;-83
2021/09/12 04:49:53;;;;;;;27.10;24.53;;;16.70;1.00;;;;;;5042328;28;20667;-87
2021/09/12 04:52:21;;;;;;;25.23;22.73;;;16.70;1.00;;;;;;5060102;28;20420;-87
2021/09/12 04:54:48;;;;;;;25.70;23.00;;;16.70;1.00;;;;;;5037294;28;20487;-86
2021/09/12 04:57:14;;;;;;;24.50;22.00;;;16.60;1.00;;;;;;5028636;28;21794;-85
2021/09/12 04:59:41;;;;;;;26.77;24.27;;;16.60;1.00;;;;;;5027266;28;20438;-85
2021/09/12 05:02:08;;;;;;;24.90;22.57;;;16.60;1.00;;;;;;5006736;28;21316;-85
2021/09/12 05:04:35;;;;;;;27.43;24.23;;;16.60;1.00;;;;;;5023261;28;20515;-85
2021/09/12 05:07:02;;;;;;;25.60;23.00;;;16.50;1.00;;;;;;5024649;28;21352;-86
2021/09/12 05:09:30;;;;;;;26.90;24.30;;;16.60;1.00;;;;;;5026003;28;20582;-86
2021/09/12 05:11:57;;;;;;;27.07;23.93;;;16.60;1.00;;;;;;5025841;28;20460;-85
2021/09/12 05:14:25;;;;;;;28.67;25.10;;;16.60;1.00;;;;;;5025762;28;20587;-86
2021/09/12 05:16:51;;;;;;;25.60;23.10;;;16.50;1.00;;;;;;5023137;28;24535;-86
2021/09/12 05:19:18;;;;;;;24.87;22.23;;;16.50;1.00;;;;;;5028224;28;20981;-85
2021/09/12 05:21:45;;;;;;;26.13;23.43;;;16.60;1.00;;;;;;5027421;28;20471;-86
2021/09/12 05:24:12;;;;;;;27.37;24.50;;;16.60;1.00;;;;;;5027750;28;20533;-85
2021/09/12 05:26:40;;;;;;;26.13;23.27;;;16.60;1.00;;;;;;5024278;28;20456;-85
2021/09/12 05:29:06;;;;;;;27.23;24.27;;;16.60;1.00;;;;;;5028039;28;20524;-86
2021/09/12 05:31:33;;;;;;;27.33;24.63;;;16.60;1.00;;;;;;5030922;28;20565;-85
2021/09/12 05:34:00;;;;;;;29.80;26.57;;;16.60;1.00;;;;;;5027327;28;20430;-85
2021/09/12 05:36:26;;;;;;;26.43;23.90;;;16.60;1.00;;;;;;5030889;28;20457;-86
2021/09/12 05:38:53;;;;;;;25.73;23.13;;;16.60;1.00;;;;;;5027960;28;20432;-84
2021/09/12 05:41:20;;;;;;;27.80;24.90;;;16.70;1.00;;;;;;5029688;28;20480;-84
2021/09/12 05:43:48;;;;;;;29.23;26.27;;;16.80;1.00;;;;;;5032083;28;20496;-85
2021/09/12 05:46:15;;;;;;;26.47;23.80;;;16.80;1.00;;;;;;5052315;28;20400;-83
2021/09/12 05:48:41;;;;;;;26.53;24.03;;;16.90;1.00;;;;;;5061618;28;20467;-85
2021/09/12 05:51:08;;;;;;;27.37;24.50;;;16.90;1.00;;;;;;5061950;28;20606;-83
2021/09/12 05:53:35;;;;;;;25.63;23.00;;;17.10;1.00;;;;;;5043484;28;20442;-84
2021/09/12 05:56:01;;;;;;;26.47;23.97;;;17.10;1.00;;;;;;5056380;28;20491;-83
2021/09/12 05:58:28;;;;;;;25.30;22.90;;;17.20;1.00;;;;;;5060606;28;20493;-83
2021/09/12 06:00:56;;;;;;;25.83;23.20;;;17.30;1.00;;;;;;5049175;28;21015;-83
2021/09/12 06:03:23;;;;;;;27.00;24.30;;;17.40;1.00;;;;;;5011984;28;20448;-82
2021/09/12 06:05:49;;;;;;;23.77;21.57;;;17.50;1.00;;;;;;5026426;28;20471;-82
2021/09/12 06:08:16;;;;;;;23.93;21.50;;;17.50;1.00;;;;;;5010300;28;20856;-82
2021/09/12 06:10:43;;;;;;;26.20;23.57;;;17.60;1.00;;;;;;5022705;28;20521;-84
2021/09/12 06:13:09;;;;;;;25.90;23.30;;;17.60;1.00;;;;;;5020720;28;20534;-83
2021/09/12 06:15:36;;;;;;;24.43;22.13;;;17.70;1.00;;;;;;5023189;28;20518;-83
2021/09/12 06:18:04;;;;;;;23.83;21.43;;;17.70;1.00;;;;;;5021724;28;20541;-83
2021/09/12 06:20:31;;;;;;;24.10;21.90;;;17.70;1.00;;;;;;5023528;28;20550;-83
2021/09/12 06:22:58;;;;;;;25.67;22.50;;;17.80;1.00;;;;;;5025653;28;21266;-84
2021/09/12 06:25:25;;;;;;;23.73;21.43;;;17.80;1.00;;;;;;5010904;28;20471;-83
2021/09/12 06:27:51;;;;;;;23.87;21.37;;;17.80;1.00;;;;;;5024787;28;20420;-84
2021/09/12 06:30:19;;;;;;;23.90;21.80;;;17.90;1.00;;;;;;5027441;28;20478;-84
2021/09/12 06:32:45;;;;;;;25.30;22.60;;;17.90;1.00;;;;;;5026445;28;20674;-83
2021/09/12 06:35:14;;;;;;;23.50;21.20;;;17.90;1.00;;;;;;5024421;28;20581;-84
2021/09/12 06:37:41;;;;;;;24.20;21.90;;;17.90;1.00;;;;;;5021231;28;20460;-83
2021/09/12 06:40:09;;;;;;;22.83;20.73;;;17.90;1.00;;;;;;5023866;28;20559;-83
2021/09/12 06:42:35;;;;;;;22.90;20.60;;;17.90;1.00;;;;;;5023828;28;20443;-84
2021/09/12 06:45:02;;;;;;;22.87;20.63;;;17.90;1.00;;;;;;5021515;28;20810;-83
2021/09/12 06:47:29;;;;;;;23.40;20.47;;;17.90;1.00;;;;;;5026198;28;20444;-83
2021/09/12 06:49:57;;;;;;;23.50;21.00;;;18.00;1.00;;;;;;5026487;28;20749;-83
2021/09/12 06:52:26;;;;;;;23.03;20.83;;;18.00;1.00;;;;;;5036842;28;21722;-83
2021/09/12 06:54:53;;;;;;;23.47;21.17;;;18.00;1.00;;;;;;5050864;28;20451;-83
2021/09/12 06:57:19;;;;;;;21.97;19.83;;;18.10;1.00;;;;;;5034376;28;20461;-84
2021/09/12 06:59:46;;;;;;;22.67;20.43;;;18.20;1.00;;;;;;5047773;28;20566;-84
2021/09/12 07:02:13;;;;;;;22.13;19.80;;;18.30;1.00;;;;;;5045204;28;20448;-83
2021/09/12 07:04:39;;;;;;;22.00;19.83;;;18.40;1.00;;;;;;5036385;28;21330;-82
2021/09/12 07:07:07;;;;;;;21.10;19.00;;;18.60;1.00;;;;;;5040793;28;20509;-83
2021/09/12 07:09:35;;;;;;;22.63;20.43;;;18.70;1.00;;;;;;5039422;28;20464;-83
2021/09/12 07:12:01;;;;;;;23.27;20.93;;;19.00;1.00;;;;;;5022071;28;21522;-83
2021/09/12 07:14:28;;;;;;;22.13;19.93;;;19.30;1.00;;;;;;5038815;28;21194;-84
2021/09/12 07:16:55;;;;;;;19.33;17.30;;;19.50;1.00;;;;;;5032869;28;20478;-83
2021/09/12 07:19:21;;;;;;;20.80;18.60;;;19.70;1.00;;;;;;5036501;28;20460;-83
2021/09/12 07:21:48;;;;;;;18.73;16.93;;;19.90;1.00;;;;;;5039027;28;20450;-84
2021/09/12 07:24:15;;;;;;;17.27;15.70;;;20.10;1.00;;;;;;5038910;28;20533;-84
2021/09/12 07:26:43;;;;;;;19.30;17.60;;;20.30;1.00;;;;;;5038858;28;20422;-84
2021/09/12 07:29:11;;;;;;;17.43;15.83;;;20.50;1.00;;;;;;5036353;28;21363;-83
2021/09/12 07:31:37;;;;;;;18.20;16.40;;;20.50;1.00;;;;;;5035927;28;20594;-84
2021/09/12 07:34:04;;;;;;;19.40;16.97;;;20.60;1.00;;;;;;5037043;28;20529;-84
2021/09/12 07:36:31;;;;;;;19.00;17.27;;;20.60;1.00;;;;;;5037325;28;20477;-84
2021/09/12 07:38:58;;;;;;;18.93;16.93;;;20.60;1.00;;;;;;5034797;28;21411;-83
2021/09/12 07:41:25;;;;;;;17.33;15.83;;;20.60;1.00;;;;;;5037370;28;20912;-84
2021/09/12 07:43:53;;;;;;;18.00;16.20;;;20.60;1.00;;;;;;5034834;28;21008;-84
2021/09/12 07:46:20;;;;;;;18.30;16.47;;;20.60;1.00;;;;;;5032756;28;20554;-81
2021/09/12 07:48:47;;;;;;;15.97;14.43;;;20.60;1.00;;;;;;5029601;28;20680;-81
2021/09/12 07:51:13;;;;;;;17.07;15.43;;;20.60;1.00;;;;;;5026873;28;20438;-81
2021/09/12 07:53:40;;;;;;;17.13;15.43;;;20.60;1.00;;;;;;5030829;28;23277;-80
2021/09/12 07:56:07;;;;;;;16.63;15.10;;;20.60;1.00;;;;;;5027483;28;20541;-80
2021/09/12 07:58:33;;;;;;;17.43;15.73;;;20.60;1.00;;;;;;5024671;28;20600;-81
2021/09/12 08:01:01;;;;;;;16.80;15.20;;;20.50;1.00;;;;;;5026234;28;20470;-80
2021/09/12 08:03:28;;;;;;;16.80;15.30;;;20.50;1.00;;;;;;5027994;28;20539;-81
2021/09/12 08:05:54;;;;;;;18.50;16.80;;;20.40;1.00;;;;;;5032965;28;20812;-79
2021/09/12 08:08:23;;;;;;;19.00;17.03;;;20.30;1.00;;;;;;5038174;28;20935;-80
2021/09/12 08:10:49;;;;;;;20.93;17.70;;;20.30;1.00;;;;;;5042041;28;20465;-81
2021/09/12 08:13:16;;;;;;;18.43;16.73;;;20.40;1.00;;;;;;5034545;28;20486;-80
2021/09/12 08:15:43;;;;;;;16.83;15.23;;;20.50;1.00;;;;;;5038532;28;20451;-80
2021/09/12 08:18:11;;;;;;;19.10;17.20;;;20.60;1.00;;;;;;5039234;28;20858;-80
2021/09/12 08:20:38;;;;;;;17.77;16.07;;;20.70;1.00;;;;;;5035979;28;20755;-79
2021/09/12 08:23:07;;;;;;;18.20;16.53;;;20.80;1.00;;;;;;5047513;28;20450;-81
2021/09/12 08:25:33;;;;;;;17.27;15.57;;;20.90;1.00;;;;;;5027999;28;21007;-82
2021/09/12 08:28:00;;;;;;;16.50;15.00;;;21.10;1.00;;;;;;5026841;28;21262;-80
2021/09/12 08:30:27;;;;;;;17.67;15.77;;;21.20;1.00;;;;;;5023778;28;20468;-81
2021/09/12 08:32:54;;;;;;;17.30;15.60;;;21.30;1.00;;;;;;5027563;28;21367;-83
2021/09/12 08:35:22;;;;;;;17.63;16.00;;;21.40;1.00;;;;;;5027341;28;21268;-81
2021/09/12 08:37:49;;;;;;;18.20;16.50;;;21.40;1.00;;;;;;5027542;28;20433;-82
2021/09/12 08:40:15;;;;;;;17.27;15.57;;;21.30;1.00;;;;;;5037918;28;22303;-83
2021/09/12 08:42:43;;;;;;;17.63;15.83;;;21.30;1.00;;;;;;5042714;28;21702;-82
2021/09/12 08:45:10;;;;;;;18.13;16.50;;;21.20;1.00;;;;;;5038046;28;20467;-82
2021/09/12 08:47:37;;;;;;;17.87;16.13;;;21.10;1.00;;;;;;5036037;28;20490;-81
2021/09/12 08:50:05;;;;;;;16.57;14.97;;;21.00;1.00;;;;;;5033362;28;20980;-80
2021/09/12 08:52:33;;;;;;;17.87;16.20;;;21.00;1.00;;;;;;5037625;28;20415;-80
2021/09/12 08:55:00;;;;;;;18.20;16.40;;;21.00;1.00;;;;;;5037730;28;21281;-79
2021/09/12 08:57:26;;;;;;;18.13;15.93;;;21.00;1.00;;;;;;5036558;28;20423;-83
2021/09/12 08:59:53;;;;;;;18.63;16.93;;;20.90;1.00;;;;;;5037680;28;20447;-83
2021/09/12 09:02:25;;;;;;;17.80;16.00;;;21.00;1.00;;;;;;5043404;28;20427;-82
2021/09/12 09:05:00;;;;;;;16.77;15.00;;;21.10;1.00;;;;;;5040665;28;20455;-83
2021/09/12 09:07:29;;;;;;;18.20;16.43;;;21.00;1.00;;;;;;5031839;28;20479;-84
2021/09/12 09:09:58;;;;;;;18.27;16.37;;;20.90;1.00;;;;;;5031031;28;20445;-84
2021/09/12 09:12:28;;;;;;;18.53;16.70;;;21.00;1.00;;;;;;5030555;28;20488;-81
2021/09/12 09:15:03;;;;;;;16.97;14.90;;;21.00;1.00;;;;;;5033631;28;20914;-83
2021/09/12 09:17:30;;;;;;;19.80;16.93;;;21.10;1.00;;;;;;5027054;28;20544;-82
2021/09/12 09:19:57;;;;;;;17.70;15.90;;;21.20;1.00;;;;;;5028708;28;20489;-83
2021/09/12 09:22:31;;;;;;;15.27;13.80;;;21.20;1.00;;;;;;5029160;28;20484;-82
2021/09/12 09:25:00;;;;;;;17.27;15.57;;;21.30;1.00;;;;;;5029264;28;20465;-83
2021/09/12 09:27:28;;;;;;;14.97;13.47;;;21.40;1.00;;;;;;5031473;28;20464;-82
2021/09/12 09:29:56;;;;;;;15.60;14.10;;;21.70;1.00;;;;;;5030681;28;20528;-83
2021/09/12 09:32:29;;;;;;;16.77;15.03;;;22.00;1.00;;;;;;5028675;28;20488;-83
2021/09/12 09:34:59;;;;;;;16.17;14.67;;;22.20;1.00;;;;;;5029151;28;20524;-85
2021/09/12 09:37:26;;;;;;;16.27;14.80;;;22.50;1.00;;;;;;5031624;28;21432;-82
2021/09/12 09:39:54;;;;;;;17.53;15.73;;;22.90;1.00;;;;;;5029812;28;20519;-81
2021/09/12 09:42:32;;;;;;;15.93;14.07;;;23.00;1.00;;;;;;5023055;28;20477;-83
2021/09/12 09:45:00;;;;;;;15.37;13.87;;;23.10;1.00;;;;;;5029055;28;20494;-84
2021/09/12 09:47:27;;;;;;;16.47;15.03;;;23.00;1.00;;;;;;5026035;28;20530;-83
2021/09/12 09:50:04;;;;;;;17.20;15.47;;;23.00;1.00;;;;;;5028439;28;20410;-82
2021/09/12 09:52:33;;;;;;;18.00;16.20;;;23.00;1.00;;;;;;5027353;28;20465;-82
2021/09/12 09:55:00;;;;;;;17.20;15.60;;;23.00;1.00;;;;;;5029443;28;20453;-83
2021/09/12 09:57:27;;;;;;;15.83;14.40;;;23.20;1.00;;;;;;5026590;28;20465;-82
2021/09/12 09:59:55;;;;;;;15.47;14.07;;;23.40;1.00;;;;;;5025278;28;21342;-80
2021/09/12 10:02:22;;;;;;;15.70;14.20;;;23.50;1.00;;;;;;5019494;28;20458;-79
2021/09/12 10:04:50;;;;;;;15.40;14.00;;;23.70;1.00;;;;;;5024919;28;20572;-80
2021/09/12 10:07:19;;;;;;;17.00;15.50;;;23.90;1.00;;;;;;5029818;28;20479;-80
2021/09/12 10:09:46;;;;;;;16.53;14.63;;;24.10;1.00;;;;;;5029557;28;20462;-79
2021/09/12 10:12:14;;;;;;;16.90;15.30;;;24.50;1.00;;;;;;5029446;28;20569;-80
2021/09/12 10:14:47;;;;;;;14.53;13.23;;;24.90;1.00;;;;;;5030888;28;20489;-80
2021/09/12 10:17:20;;;;;;;14.53;13.00;;;25.10;1.00;;;;;;5037011;28;21019;-79
2021/09/12 10:19:46;;;;;;;13.47;12.27;;;25.40;1.00;;;;;;5037733;28;20455;-80
2021/09/12 10:22:15;;;;;;;13.70;12.40;;;25.90;1.00;;;;;;5034205;28;20434;-80
2021/09/12 10:25:09;;;;;;;14.50;13.20;;;26.00;1.00;;;;;;5024959;28;20474;-80
2021/09/12 10:27:38;;;;;;;12.90;11.70;;;26.70;1.00;;;;;;5023242;28;20466;-80
2021/09/12 10:30:25;;;;;;;12.80;11.67;;;27.70;1.00;;;;;;5027022;28;21397;-78
2021/09/12 10:33:16;;;;;;;11.80;10.90;;;28.10;1.00;;;;;;5028284;28;21377;-78
2021/09/12 10:35:54;;;;;;;12.23;11.23;;;28.50;1.00;;;;;;5027433;28;20453;-82
2021/09/12 10:38:30;;;;;;;12.10;11.00;;;29.10;1.00;;;;;;5014675;28;20444;-81
2021/09/12 10:41:17;;;;;;;12.07;11.07;;;30.10;1.00;;;;;;5030326;28;20527;-81
2021/09/12 10:43:53;;;;;;;11.30;10.30;;;30.30;1.00;;;;;;5038040;28;21231;-82
2021/09/12 10:46:21;;;;;;;11.10;10.27;;;29.60;1.00;;;;;;5032914;28;20957;-81
2021/09/12 10:51:45;;;;;;;11.88;10.70;;;28.60;1.00;;;;;;5095912;27;1168593;-81
2021/09/12 10:54:12;;;;;;;10.80;9.90;;;28.60;1.00;;;;;;5149876;27;20222;-81
2021/09/12 10:56:40;;;;;;;10.57;9.67;;;28.60;1.00;;;;;;5132475;27;20453;-81
2021/09/12 10:59:12;;;;;;;11.20;10.20;;;28.60;1.00;;;;;;5141199;27;22017;-81
2021/09/12 11:01:42;;;;;;;10.00;9.10;;;28.60;1.00;;;;;;5127461;27;21607;-81
2021/09/12 11:04:10;;;;;;;11.00;10.00;;;28.50;1.00;;;;;;5142069;27;20540;-82
2021/09/12 11:06:38;;;;;;;9.63;8.67;;;28.50;1.00;;;;;;5141064;27;20445;-82
2021/09/12 11:09:16;;;;;;;9.57;8.67;;;29.30;1.00;;;;;;5143224;27;20490;-82
2021/09/12 11:11:43;;;;;;;9.97;9.17;;;29.40;1.00;;;;;;5144357;27;20715;-83
2021/09/12 11:14:15;;;;;;;10.87;9.87;;;28.90;1.00;;;;;;5152571;27;20445;-82
2021/09/12 11:16:44;;;;;;;10.37;9.47;;;28.00;1.00;;;;;;5141013;27;20439;-83
2021/09/12 11:19:11;;;;;;;11.43;10.43;;;27.20;1.00;;;;;;5143278;27;20453;-83
2021/09/12 11:21:39;;;;;;;10.17;9.30;;;26.70;1.00;;;;;;5142575;27;20455;-81
2021/09/12 11:24:10;;;;;;;11.40;10.40;;;26.00;1.00;;;;;;5145995;27;20403;-81
2021/09/12 11:26:42;;;;;;;11.20;10.30;;;25.50;1.00;;;;;;5148667;27;21366;-82
2021/09/12 11:29:11;;;;;;;9.87;8.87;;;25.40;1.00;;;;;;5127193;27;20459;-82
2021/09/12 11:31:38;;;;;;;10.77;9.83;;;25.40;1.00;;;;;;5143166;27;20464;-84
2021/09/12 11:34:05;;;;;;;12.40;11.20;;;25.80;1.00;;;;;;5127078;27;20985;-81
2021/09/12 11:36:47;;;;;;;9.80;9.00;;;26.10;1.00;;;;;;5145959;27;20456;-82
2021/09/12 11:39:19;;;;;;;9.07;8.37;;;26.20;1.00;;;;;;5144371;27;20476;-84
2021/09/12 11:41:45;;;;;;;9.97;9.13;;;26.40;1.00;;;;;;5123982;27;20458;-81
2021/09/12 11:44:13;;;;;;;10.37;9.50;;;26.50;1.00;;;;;;5140311;27;20515;-82
2021/09/12 11:46:47;;;;;;;8.87;8.17;;;26.90;1.00;;;;;;5146035;27;20487;-83
2021/09/12 11:49:15;;;;;;;10.17;9.27;;;26.90;1.00;;;;;;5149205;27;20506;-82
2021/09/12 11:51:45;;;;;;;9.03;8.23;;;26.90;1.00;;;;;;5140627;27;21438;-82
2021/09/12 11:54:16;;;;;;;12.93;10.00;;;26.60;1.00;;;;;;5144383;27;20529;-82
2021/09/12 11:56:44;;;;;;;9.20;8.30;;;26.10;1.00;;;;;;5129762;27;20457;-83
2021/09/12 11:59:12;;;;;;;8.80;8.10;;;25.90;1.00;;;;;;5153991;27;21047;-83
2021/09/12 12:01:41;;;;;;;8.40;7.70;;;25.80;1.00;;;;;;5149161;27;20514;-82
2021/09/12 12:04:09;;;;;;;9.57;8.77;;;25.90;1.00;;;;;;5128533;27;20559;-85
2021/09/12 12:06:36;;;;;;;9.00;8.20;;;26.00;1.00;;;;;;5133594;27;20472;-83
2021/09/12 12:09:05;;;;;;;8.30;7.60;;;26.10;1.00;;;;;;5126532;27;20515;-83
2021/09/12 12:11:34;;;;;;;8.93;6.90;;;26.40;1.00;;;;;;5129957;27;20556;-84
2021/09/12 12:14:02;;;;;;;7.90;7.30;;;26.70;1.00;;;;;;5128199;27;20528;-82
2021/09/12 12:16:28;;;;;;;7.57;6.67;;;27.50;1.00;;;;;;5114651;27;20435;-84
2021/09/12 12:19:02;;;;;;;8.47;7.77;;;28.10;1.00;;;;;;5111911;27;20467;-82
2021/09/12 12:21:32;;;;;;;8.33;7.10;;;28.20;1.00;;;;;;5131898;27;20433;-84
2021/09/12 12:24:08;;;;;;;9.07;8.20;;;28.10;1.00;;;;;;5128413;27;20528;-83
2021/09/12 12:26:42;;;;;;;8.53;7.37;;;27.80;1.00;;;;;;5129621;27;20553;-83
2021/09/12 12:29:10;;;;;;;7.40;6.80;;;27.50;1.00;;;;;;5127100;27;22595;-83
2021/09/12 12:31:38;;;;;;;7.43;6.83;;;27.00;1.00;;;;;;5126014;27;20701;-81
2021/09/12 12:34:08;;;;;;;8.40;7.50;;;26.70;1.00;;;;;;5126634;27;21343;-83
2021/09/12 12:36:34;;;;;;;9.63;8.83;;;26.30;1.00;;;;;;5129241;27;20438;-81
2021/09/12 12:39:16;;;;;;;7.93;7.13;;;26.00;1.00;;;;;;5126745;27;20536;-82
2021/09/12 12:41:55;;;;;;;7.87;7.17;;;25.60;1.00;;;;;;5116212;27;20501;-83
2021/09/12 12:44:23;;;;;;;8.30;7.60;;;25.50;1.00;;;;;;5127349;27;21347;-81